Terminal Aerodrome Forecast
Issued by NWS

Home | Current Version | Previous Version | Text Only | Print | Product List | Glossary On
Versions: 1 2 3 4 5 6 7 8 9 10 11 12 13 14
000
FTUS45 KFGZ 190500 AAA
TAFPGA
TAF AMD
KPGA 190505Z 1905/1924 19012G20KT P6SM BKN060 OVC090
     FM190700 VRB05KT P6SM SCT070 BKN100
     FM191900 35006KT P6SM SCT080 BKN150=

USA.gov is the U.S. government's official web portal to all federal, state and local government web resources and services.